Time;durP1;ratioP1;P1;durP2;ratioP2;P2;SDS_P1;SDS_P2;PMS_P1;PMS_P2;Temp;Humidity;BMP_temperature;BMP_pressure;BME280_temperature;BME280_humidity;BME280_pressure;Samples;Min_cycle;Max_cycle;Signal;HPM_P1;HPM_P2
2021/03/25 00:00:17;;;;;;;47.20;38.00;;;7.70;99.90;;;;;;6171102;23;20381;-79
2021/03/25 00:02:46;;;;;;;48.00;38.60;;;7.60;99.90;;;;;;6158388;23;20427;-79
2021/03/25 00:05:15;;;;;;;50.67;40.30;;;7.60;99.90;;;;;;6169664;23;20396;-79
2021/03/25 00:07:42;;;;;;;49.60;40.10;;;7.60;99.90;;;;;;6169845;23;20425;-79
2021/03/25 00:10:24;;;;;;;50.80;39.60;;;7.50;99.90;;;;;;6169794;23;20450;-79
2021/03/25 00:12:53;;;;;;;47.63;38.70;;;7.50;99.90;;;;;;6158071;23;20420;-79
2021/03/25 00:15:22;;;;;;;51.87;42.00;;;7.50;99.90;;;;;;6158576;23;20714;-79
2021/03/25 00:18:14;;;;;;;49.83;39.87;;;7.40;99.90;;;;;;6171844;23;20404;-79
2021/03/25 00:20:54;;;;;;;52.73;39.27;;;7.40;99.90;;;;;;6162753;23;20883;-79
2021/03/25 00:23:23;;;;;;;50.27;41.83;;;7.40;99.90;;;;;;6158634;23;20824;-79
2021/03/25 00:25:52;;;;;;;53.15;40.78;;;7.30;99.90;;;;;;6156718;23;20425;-79
2021/03/25 00:28:20;;;;;;;49.80;39.87;;;7.40;99.90;;;;;;6156968;23;20193;-79
2021/03/25 00:30:47;;;;;;;49.10;39.03;;;7.30;99.90;;;;;;6170916;23;20428;-79
2021/03/25 00:33:18;;;;;;;47.23;37.47;;;7.30;99.90;;;;;;6157330;23;20421;-79
2021/03/25 00:35:50;;;;;;;51.23;40.77;;;7.30;99.90;;;;;;6161671;23;20423;-79
2021/03/25 00:38:18;;;;;;;47.77;39.60;;;7.20;99.90;;;;;;6132802;23;20495;-79
2021/03/25 00:40:52;;;;;;;52.93;41.00;;;7.20;99.90;;;;;;6136509;23;20879;-79
2021/03/25 00:43:41;;;;;;;48.43;39.57;;;7.20;99.90;;;;;;6132674;23;20417;-79
2021/03/25 00:46:08;;;;;;;51.00;42.07;;;7.20;99.90;;;;;;6169699;23;20396;-79
2021/03/25 00:48:36;;;;;;;51.53;40.67;;;7.10;99.90;;;;;;6135909;23;20456;-79
2021/03/25 00:51:04;;;;;;;54.70;39.33;;;7.10;99.90;;;;;;6135034;23;20648;-79
2021/03/25 00:53:36;;;;;;;44.77;36.77;;;7.00;99.90;;;;;;6133078;23;20801;-79
2021/03/25 00:56:07;;;;;;;48.47;40.07;;;7.00;99.90;;;;;;6132670;23;20409;-79
2021/03/25 00:58:37;;;;;;;52.80;40.27;;;7.00;99.90;;;;;;6133507;23;20971;-79
2021/03/25 01:01:08;;;;;;;46.60;38.50;;;7.00;99.90;;;;;;6132964;23;20428;-79
2021/03/25 01:03:36;;;;;;;45.77;38.80;;;7.00;99.90;;;;;;6132396;23;20409;-79
2021/03/25 01:06:06;;;;;;;49.43;38.57;;;6.90;99.90;;;;;;6132932;23;20412;-79
2021/03/25 01:08:38;;;;;;;47.40;38.40;;;6.90;99.90;;;;;;6133059;23;20432;-79
2021/03/25 01:11:11;;;;;;;48.10;38.40;;;6.90;99.90;;;;;;6168701;23;20423;-79
2021/03/25 01:13:45;;;;;;;46.83;36.00;;;6.90;99.90;;;;;;6168756;23;20380;-79
2021/03/25 01:16:24;;;;;;;42.70;36.60;;;6.90;99.90;;;;;;6132145;23;20424;-79
2021/03/25 01:18:53;;;;;;;44.40;37.50;;;6.90;99.90;;;;;;6168971;23;20448;-79
2021/03/25 01:21:31;;;;;;;49.57;38.60;;;6.80;99.90;;;;;;6158852;23;20408;-79
2021/03/25 01:23:59;;;;;;;46.80;36.60;;;6.80;99.90;;;;;;6132651;23;20440;-79
2021/03/25 01:26:29;;;;;;;46.80;38.77;;;6.90;99.90;;;;;;6132837;23;20412;-79
2021/03/25 01:29:00;;;;;;;47.43;38.50;;;6.70;99.90;;;;;;6168580;23;20452;-78
2021/03/25 01:31:33;;;;;;;51.13;38.33;;;6.80;99.90;;;;;;6158305;23;20429;-78
2021/03/25 01:34:06;;;;;;;43.13;36.23;;;6.80;99.90;;;;;;6132853;23;20405;-79
2021/03/25 01:36:37;;;;;;;46.53;37.63;;;6.70;99.90;;;;;;6152166;23;20451;-79
2021/03/25 01:39:06;;;;;;;42.77;35.97;;;6.70;99.90;;;;;;6156405;23;20483;-79
2021/03/25 01:41:40;;;;;;;41.50;32.53;;;6.70;99.90;;;;;;6156288;23;20416;-79
2021/03/25 01:44:31;;;;;;;42.97;35.53;;;6.70;99.90;;;;;;6157299;23;20875;-79
2021/03/25 01:47:04;;;;;;;43.87;35.40;;;6.70;99.90;;;;;;6157190;23;20416;-79
2021/03/25 01:49:32;;;;;;;42.43;34.57;;;6.60;99.90;;;;;;6154922;23;20811;-79
2021/03/25 01:52:30;;;;;;;45.17;34.80;;;6.60;99.90;;;;;;6156453;23;20416;-79
2021/03/25 01:55:25;;;;;;;46.43;35.83;;;6.60;99.90;;;;;;6149306;23;20428;-79
2021/03/25 01:58:29;;;;;;;42.40;35.50;;;6.60;99.90;;;;;;6139839;23;20431;-79
2021/03/25 02:01:05;;;;;;;42.07;36.20;;;6.60;99.90;;;;;;6168404;23;20400;-79
2021/03/25 02:03:49;;;;;;;41.23;34.30;;;6.50;99.90;;;;;;6157071;23;20807;-78
2021/03/25 02:06:31;;;;;;;40.90;34.60;;;6.60;99.90;;;;;;6156502;23;20413;-78
2021/03/25 02:09:07;;;;;;;39.23;33.57;;;6.50;99.90;;;;;;6156688;23;20574;-78
2021/03/25 02:12:13;;;;;;;47.97;35.63;;;6.50;99.90;;;;;;6160950;23;20483;-78
2021/03/25 02:14:51;;;;;;;41.53;33.00;;;6.50;99.90;;;;;;6155050;23;20807;-78
2021/03/25 02:17:26;;;;;;;42.97;34.87;;;6.50;99.90;;;;;;6155047;23;20799;-78
2021/03/25 02:20:41;;;;;;;41.00;34.50;;;6.50;99.90;;;;;;6126967;23;20409;-78
2021/03/25 02:23:37;;;;;;;45.23;35.57;;;6.40;99.90;;;;;;6150196;23;20425;-78
2021/03/25 02:26:10;;;;;;;40.87;33.90;;;6.40;99.90;;;;;;6126610;23;20547;-78
2021/03/25 02:29:07;;;;;;;40.40;33.70;;;6.40;99.90;;;;;;6136678;23;20472;-78
2021/03/25 02:31:40;;;;;;;42.67;33.30;;;6.40;99.90;;;;;;6136810;23;20429;-78
2021/03/25 02:34:13;;;;;;;39.30;32.47;;;6.40;99.90;;;;;;6125420;23;20884;-78
2021/03/25 02:36:46;;;;;;;40.53;33.10;;;6.30;99.90;;;;;;6125528;23;20504;-78
2021/03/25 02:39:24;;;;;;;41.10;35.10;;;6.30;99.90;;;;;;6137029;23;20421;-78
2021/03/25 02:42:15;;;;;;;39.37;32.90;;;6.30;99.90;;;;;;6125779;23;20444;-78
2021/03/25 02:44:49;;;;;;;39.07;31.43;;;6.30;99.90;;;;;;6125444;23;20489;-78
2021/03/25 02:47:22;;;;;;;47.10;33.23;;;6.20;99.90;;;;;;6136799;23;20382;-78
2021/03/25 02:49:57;;;;;;;39.93;32.10;;;6.20;99.90;;;;;;6136442;23;20496;-78
2021/03/25 02:52:35;;;;;;;44.67;34.93;;;6.20;99.90;;;;;;6126862;23;20424;-78
2021/03/25 02:55:12;;;;;;;41.07;33.03;;;6.20;99.90;;;;;;6127060;23;20801;-78
2021/03/25 02:57:49;;;;;;;39.00;32.57;;;6.10;99.90;;;;;;6128201;23;20496;-78
2021/03/25 03:00:31;;;;;;;40.03;33.80;;;6.10;99.90;;;;;;6127241;23;20503;-78
2021/03/25 03:03:07;;;;;;;33.80;29.83;;;6.10;99.90;;;;;;6127217;23;20443;-78
2021/03/25 03:05:54;;;;;;;39.53;32.23;;;6.10;99.90;;;;;;6128673;23;20454;-78
2021/03/25 03:08:32;;;;;;;38.57;33.30;;;6.00;99.90;;;;;;6151514;23;20786;-78
2021/03/25 03:11:06;;;;;;;39.13;34.87;;;6.00;99.90;;;;;;6138525;23;20441;-78
2021/03/25 03:13:41;;;;;;;41.00;30.80;;;6.00;99.90;;;;;;6127191;23;20420;-78
2021/03/25 03:16:15;;;;;;;36.80;32.20;;;6.00;99.90;;;;;;6127626;23;20780;-78
2021/03/25 03:18:50;;;;;;;38.73;33.33;;;6.00;99.90;;;;;;6138259;23;20421;-78
2021/03/25 03:21:30;;;;;;;36.37;31.97;;;5.90;99.90;;;;;;6126887;23;20410;-78
2021/03/25 03:24:08;;;;;;;41.53;34.20;;;5.90;99.90;;;;;;6138513;23;20404;-78
2021/03/25 03:26:57;;;;;;;46.10;34.03;;;5.90;99.90;;;;;;6126553;23;20916;-78
2021/03/25 03:29:27;;;;;;;40.03;33.70;;;5.90;99.90;;;;;;6126578;23;20441;-78
2021/03/25 03:32:11;;;;;;;39.40;32.50;;;5.90;99.90;;;;;;6126556;23;20437;-78
2021/03/25 03:34:59;;;;;;;36.53;30.53;;;5.80;99.90;;;;;;6134326;23;20397;-78
2021/03/25 03:37:32;;;;;;;37.30;32.90;;;5.80;99.90;;;;;;6126681;23;20421;-78
2021/03/25 03:40:19;;;;;;;42.87;35.20;;;5.80;99.90;;;;;;6127930;23;20895;-78
2021/03/25 03:43:00;;;;;;;43.20;34.80;;;5.80;99.90;;;;;;6126400;23;20900;-78
2021/03/25 03:45:36;;;;;;;43.83;36.05;;;5.80;99.90;;;;;;6127069;23;20487;-78
2021/03/25 03:48:27;;;;;;;42.27;35.73;;;5.80;99.90;;;;;;6150840;23;20196;-78
2021/03/25 03:51:01;;;;;;;43.50;36.30;;;5.80;99.90;;;;;;6126383;23;20440;-78
2021/03/25 03:53:32;;;;;;;47.70;37.80;;;5.80;99.90;;;;;;6138000;23;20397;-78
2021/03/25 03:56:16;;;;;;;44.63;37.67;;;5.80;99.90;;;;;;6151942;23;20417;-78
2021/03/25 03:58:51;;;;;;;44.30;36.00;;;5.80;99.90;;;;;;6150848;23;20780;-78
2021/03/25 04:01:23;;;;;;;45.07;36.07;;;5.80;99.90;;;;;;6136393;23;20399;-78
2021/03/25 04:03:58;;;;;;;47.03;35.57;;;6.00;99.90;;;;;;6126606;23;20424;-78
2021/03/25 04:07:07;;;;;;;44.50;34.67;;;6.00;99.90;;;;;;6076879;23;20415;-78
2021/03/25 04:10:08;;;;;;;49.35;37.20;;;6.00;99.90;;;;;;6125761;23;20418;-78
2021/03/25 04:12:42;;;;;;;47.60;34.50;;;6.10;99.90;;;;;;6126674;23;20169;-78
2021/03/25 04:15:19;;;;;;;42.53;33.60;;;6.10;99.90;;;;;;6126679;23;20744;-78
2021/03/25 04:17:59;;;;;;;44.50;35.60;;;6.00;99.90;;;;;;6137375;23;20389;-78
2021/03/25 04:20:59;;;;;;;45.87;36.70;;;6.00;99.90;;;;;;6122339;23;20405;-78
2021/03/25 04:23:35;;;;;;;43.10;35.60;;;6.00;99.90;;;;;;6126116;23;20417;-78
2021/03/25 04:26:12;;;;;;;47.30;39.40;;;6.00;99.90;;;;;;6137411;23;20385;-78
2021/03/25 04:28:43;;;;;;;49.10;39.53;;;6.10;99.90;;;;;;6125834;23;20437;-78
2021/03/25 04:31:11;;;;;;;46.23;37.10;;;6.10;99.90;;;;;;6137537;23;20876;-78
2021/03/25 04:33:40;;;;;;;47.07;38.97;;;6.10;99.90;;;;;;6137128;23;20433;-77
2021/03/25 04:36:15;;;;;;;47.33;37.90;;;6.10;99.90;;;;;;6137309;23;20819;-78
2021/03/25 04:38:44;;;;;;;48.50;40.30;;;6.10;99.90;;;;;;6125647;23;20942;-78
2021/03/25 04:41:14;;;;;;;45.07;38.03;;;6.10;99.90;;;;;;6101565;23;20425;-78
2021/03/25 04:43:45;;;;;;;52.17;37.47;;;6.10;99.90;;;;;;6137224;23;20434;-78
2021/03/25 04:46:35;;;;;;;47.03;38.10;;;6.10;99.90;;;;;;6101123;23;20940;-78
2021/03/25 04:49:07;;;;;;;47.20;37.47;;;6.20;99.90;;;;;;6125567;23;20591;-78
2021/03/25 04:51:34;;;;;;;46.00;36.80;;;6.10;99.90;;;;;;6136902;23;20417;-78
2021/03/25 04:54:30;;;;;;;43.87;36.50;;;6.10;99.90;;;;;;6101148;23;20465;-78
2021/03/25 04:57:04;;;;;;;42.83;36.20;;;6.10;99.90;;;;;;6101060;23;20760;-78
2021/03/25 04:59:38;;;;;;;40.60;34.00;;;6.10;99.90;;;;;;6125423;23;20523;-78
2021/03/25 05:02:07;;;;;;;43.90;36.20;;;6.10;99.90;;;;;;6136871;23;20416;-78
2021/03/25 05:04:41;;;;;;;44.10;34.20;;;6.10;99.90;;;;;;6125523;23;20484;-78
2021/03/25 05:07:17;;;;;;;47.07;38.57;;;6.10;99.90;;;;;;6136675;23;20452;-78
2021/03/25 05:09:47;;;;;;;48.10;37.20;;;6.10;99.90;;;;;;6136938;23;20416;-78
2021/03/25 05:12:16;;;;;;;42.23;34.43;;;6.00;99.90;;;;;;6100821;23;20943;-78
2021/03/25 05:14:47;;;;;;;48.07;38.33;;;6.00;99.90;;;;;;6125161;23;20493;-78
2021/03/25 05:17:33;;;;;;;46.07;36.60;;;6.00;99.90;;;;;;6136660;23;20393;-77
2021/03/25 05:20:11;;;;;;;46.50;35.30;;;6.00;99.90;;;;;;6136593;23;20516;-77
2021/03/25 05:22:46;;;;;;;46.30;39.37;;;5.90;99.90;;;;;;6137085;23;20382;-77
2021/03/25 05:25:21;;;;;;;43.93;34.57;;;5.90;99.90;;;;;;6100892;23;20804;-77
2021/03/25 05:27:54;;;;;;;46.40;37.20;;;5.90;99.90;;;;;;6100840;23;20804;-77
2021/03/25 05:30:26;;;;;;;51.10;39.73;;;5.90;99.90;;;;;;6100788;23;20488;-78
2021/03/25 05:32:59;;;;;;;43.83;37.50;;;5.80;99.90;;;;;;6125220;23;20457;-78
2021/03/25 05:35:35;;;;;;;45.30;37.43;;;5.80;99.90;;;;;;6125026;23;20533;-78
2021/03/25 05:38:05;;;;;;;46.90;37.87;;;5.80;99.90;;;;;;6124981;23;20441;-78
2021/03/25 05:40:40;;;;;;;42.53;36.10;;;5.80;99.90;;;;;;6136566;23;20932;-78
2021/03/25 05:43:48;;;;;;;42.00;36.50;;;5.80;99.90;;;;;;6125086;23;20417;-78
2021/03/25 05:46:29;;;;;;;45.20;35.20;;;5.80;99.90;;;;;;6106880;23;20989;-78
2021/03/25 05:49:12;;;;;;;45.30;37.40;;;5.70;99.90;;;;;;6100756;23;20528;-78
2021/03/25 05:51:48;;;;;;;48.50;38.17;;;5.70;99.90;;;;;;6136466;23;20417;-78
2021/03/25 05:54:37;;;;;;;44.40;36.57;;;5.70;99.90;;;;;;6136816;23;20389;-78
2021/03/25 05:57:22;;;;;;;47.10;37.83;;;5.70;99.90;;;;;;6097147;23;20948;-78
2021/03/25 06:00:01;;;;;;;47.57;35.97;;;5.70;99.90;;;;;;6136535;23;20417;-78
2021/03/25 06:02:44;;;;;;;41.87;36.30;;;5.70;99.90;;;;;;6126455;23;20710;-77
2021/03/25 06:05:13;;;;;;;46.10;38.95;;;5.70;99.90;;;;;;6100150;23;20422;-77
2021/03/25 06:08:02;;;;;;;45.07;37.07;;;5.70;99.90;;;;;;6100386;23;20418;-77
2021/03/25 06:10:40;;;;;;;46.70;39.50;;;5.70;99.90;;;;;;6100594;23;20962;-77
2021/03/25 06:13:30;;;;;;;49.30;40.67;;;5.70;99.90;;;;;;6136538;23;20438;-77
2021/03/25 06:16:18;;;;;;;52.37;40.17;;;5.70;99.90;;;;;;6099032;23;20422;-77
2021/03/25 06:19:01;;;;;;;47.70;36.27;;;5.90;99.90;;;;;;6136420;23;20452;-78
2021/03/25 06:22:00;;;;;;;49.07;37.90;;;5.90;99.90;;;;;;6100492;23;20441;-77
2021/03/25 06:25:06;;;;;;;54.10;40.30;;;5.90;99.90;;;;;;6137119;23;20381;-77
2021/03/25 06:27:53;;;;;;;51.30;42.17;;;5.90;99.90;;;;;;6095930;23;20409;-77
2021/03/25 06:30:30;;;;;;;55.10;42.30;;;6.00;99.90;;;;;;6102527;23;20424;-77
2021/03/25 06:33:03;;;;;;;58.10;44.77;;;6.10;99.90;;;;;;6138478;23;20531;-77
2021/03/25 06:35:38;;;;;;;52.87;42.40;;;6.20;99.90;;;;;;6132237;23;20416;-77
2021/03/25 06:38:17;;;;;;;59.23;41.47;;;6.30;99.90;;;;;;6102163;23;20516;-77
2021/03/25 06:40:50;;;;;;;58.27;44.10;;;6.40;99.90;;;;;;6138208;23;20821;-77
2021/03/25 06:43:24;;;;;;;51.90;42.47;;;6.40;99.90;;;;;;6138198;23;20423;-77
2021/03/25 06:45:59;;;;;;;51.83;41.97;;;6.50;99.90;;;;;;6126758;23;20436;-77
2021/03/25 06:48:36;;;;;;;52.40;41.70;;;6.70;99.90;;;;;;6102602;23;20911;-77
2021/03/25 06:51:19;;;;;;;53.40;43.30;;;6.90;99.90;;;;;;6137754;23;20417;-77
2021/03/25 06:53:47;;;;;;;53.63;42.23;;;7.00;99.90;;;;;;6137944;23;20378;-77
2021/03/25 06:56:17;;;;;;;54.50;42.10;;;7.00;99.90;;;;;;6138189;23;20384;-77
2021/03/25 06:58:53;;;;;;;51.43;41.30;;;7.10;99.90;;;;;;6138232;23;20796;-78
2021/03/25 07:01:28;;;;;;;51.17;41.60;;;7.20;99.90;;;;;;6138147;23;20386;-78
2021/03/25 07:04:04;;;;;;;48.30;39.57;;;7.30;99.90;;;;;;6102035;23;20408;-77
2021/03/25 07:06:35;;;;;;;48.37;38.90;;;7.30;99.90;;;;;;6138133;23;20452;-77
2021/03/25 14:25:24;;;;;;;21.63;15.00;;;15.70;99.90;;;;;;6128561;23;20814;-79
2021/03/25 14:27:52;;;;;;;14.07;12.17;;;15.70;99.90;;;;;;6128718;23;20416;-79
2021/03/25 14:30:21;;;;;;;15.63;12.80;;;15.80;99.90;;;;;;6105327;23;20383;-79
2021/03/25 14:32:50;;;;;;;20.90;13.80;;;15.80;99.90;;;;;;6140712;23;20439;-80
2021/03/25 14:35:20;;;;;;;15.03;12.60;;;15.80;99.90;;;;;;6140136;23;20394;-79
2021/03/25 14:37:47;;;;;;;14.33;12.40;;;15.80;99.90;;;;;;6103823;23;20459;-79
2021/03/25 14:40:16;;;;;;;14.37;12.20;;;15.80;99.90;;;;;;6140331;23;20778;-79
2021/03/25 14:42:45;;;;;;;14.80;11.23;;;15.80;99.90;;;;;;6104717;23;20414;-79
2021/03/25 14:45:15;;;;;;;14.67;9.90;;;15.90;99.90;;;;;;6139526;23;20379;-79
2021/03/25 14:47:45;;;;;;;12.03;10.53;;;15.90;99.90;;;;;;6131948;23;20872;-79
2021/03/25 14:50:15;;;;;;;13.40;11.90;;;15.80;99.90;;;;;;6142290;23;20380;-79
2021/03/25 14:52:43;;;;;;;16.40;13.40;;;15.80;99.90;;;;;;6142849;23;20429;-79
2021/03/25 14:55:13;;;;;;;17.40;12.87;;;15.70;99.90;;;;;;6130503;23;20755;-79
2021/03/25 14:57:41;;;;;;;17.43;11.43;;;15.70;99.90;;;;;;6129978;23;20475;-79
2021/03/25 15:00:13;;;;;;;16.40;11.47;;;15.60;99.90;;;;;;6106266;23;20380;-79
2021/03/25 15:02:40;;;;;;;18.47;10.70;;;15.60;99.90;;;;;;6105727;23;20415;-79
2021/03/25 15:05:09;;;;;;;13.27;11.07;;;15.50;99.80;;;;;;6106672;23;20789;-79
2021/03/25 15:07:40;;;;;;;16.73;12.03;;;15.50;99.90;;;;;;6106189;23;20445;-79
2021/03/25 15:10:10;;;;;;;18.00;12.87;;;15.50;99.90;;;;;;6105994;23;20926;-79
2021/03/25 15:12:38;;;;;;;14.33;12.10;;;15.50;99.90;;;;;;6141971;23;20417;-79
2021/03/25 15:15:08;;;;;;;14.20;11.90;;;15.50;99.80;;;;;;6106524;23;20387;-79
2021/03/25 15:17:41;;;;;;;15.00;12.70;;;15.50;99.70;;;;;;6132267;23;20399;-79
2021/03/25 15:20:13;;;;;;;14.80;12.93;;;15.40;99.50;;;;;;6130721;23;20417;-78
2021/03/25 15:22:43;;;;;;;16.97;12.10;;;15.40;99.50;;;;;;6141736;23;20438;-78
2021/03/25 15:25:14;;;;;;;15.73;12.60;;;15.30;99.50;;;;;;6142884;23;20421;-78
2021/03/25 15:27:42;;;;;;;20.70;13.33;;;15.30;99.40;;;;;;6130351;23;20415;-80
2021/03/25 15:30:14;;;;;;;18.07;13.90;;;15.30;99.70;;;;;;6130251;23;20408;-80
2021/03/25 15:32:43;;;;;;;18.37;13.37;;;15.30;99.30;;;;;;6142277;23;20449;-80
2021/03/25 15:35:20;;;;;;;18.40;13.87;;;15.30;99.20;;;;;;6130497;23;20384;-79
2021/03/25 15:37:52;;;;;;;18.40;13.77;;;15.30;99.20;;;;;;6130640;23;20427;-79
2021/03/25 15:40:21;;;;;;;18.63;14.25;;;15.20;99.50;;;;;;6141089;23;20440;-79
2021/03/25 15:42:49;;;;;;;20.83;14.37;;;15.30;99.10;;;;;;6142266;23;20165;-79
2021/03/25 15:45:19;;;;;;;20.60;14.97;;;15.20;99.10;;;;;;6130373;23;20419;-79
2021/03/25 15:47:48;;;;;;;17.60;15.10;;;15.20;99.10;;;;;;6142296;23;20423;-79
2021/03/25 15:50:19;;;;;;;21.00;15.77;;;15.20;99.20;;;;;;6129490;23;20488;-79
2021/03/25 15:52:47;;;;;;;21.60;16.77;;;15.20;99.20;;;;;;6130359;23;20437;-79
2021/03/25 15:55:16;;;;;;;18.53;15.63;;;15.20;99.10;;;;;;6141575;23;20481;-80
2021/03/25 15:58:03;;;;;;;22.23;16.20;;;15.10;99.00;;;;;;6129764;23;20464;-79
2021/03/25 16:00:31;;;;;;;21.10;17.27;;;15.10;99.00;;;;;;6141768;23;20771;-79
2021/03/25 16:02:59;;;;;;;20.50;16.70;;;15.10;99.00;;;;;;6129954;23;20701;-79
2021/03/25 16:05:27;;;;;;;24.87;17.17;;;15.00;98.90;;;;;;6130042;23;20420;-79
2021/03/25 16:07:54;;;;;;;18.17;14.97;;;15.00;98.90;;;;;;6129556;23;20871;-79
2021/03/25 16:10:23;;;;;;;20.27;16.80;;;15.00;99.00;;;;;;6141077;23;20452;-79
2021/03/25 16:12:52;;;;;;;22.63;16.20;;;14.90;99.00;;;;;;6141382;23;20449;-79
2021/03/25 16:15:23;;;;;;;21.90;18.20;;;15.00;99.10;;;;;;6140457;23;20397;-79
2021/03/25 16:17:50;;;;;;;22.67;18.40;;;14.90;99.00;;;;;;6154254;23;20422;-79
2021/03/25 16:20:21;;;;;;;25.33;19.60;;;14.90;99.10;;;;;;6142118;23;20396;-80
2021/03/25 16:22:59;;;;;;;26.23;19.23;;;14.90;99.10;;;;;;6126618;23;20877;-79
2021/03/25 16:25:26;;;;;;;22.20;18.50;;;14.80;99.10;;;;;;6126757;23;20400;-79
2021/03/25 16:27:54;;;;;;;21.50;18.60;;;14.80;99.10;;;;;;6126868;23;20418;-79
2021/03/25 16:30:22;;;;;;;22.70;19.27;;;14.80;99.20;;;;;;6126765;23;20443;-79
2021/03/25 16:32:51;;;;;;;25.50;19.73;;;14.80;99.20;;;;;;6137660;23;20761;-79
2021/03/25 16:35:23;;;;;;;24.80;21.20;;;14.70;99.20;;;;;;6126541;23;20432;-78
2021/03/25 16:37:50;;;;;;;27.17;20.57;;;14.70;99.40;;;;;;6137625;23;20390;-78
2021/03/25 16:40:20;;;;;;;26.27;21.70;;;14.60;99.10;;;;;;6126246;23;20418;-78
2021/03/25 16:42:47;;;;;;;24.93;21.07;;;14.70;99.20;;;;;;6126171;23;20421;-78
2021/03/25 16:45:19;;;;;;;29.90;22.60;;;14.60;99.20;;;;;;6150492;23;20413;-79
2021/03/25 16:47:47;;;;;;;28.75;24.05;;;14.60;99.20;;;;;;6136851;23;20393;-79
2021/03/25 16:50:15;;;;;;;28.83;24.20;;;14.60;99.10;;;;;;6126140;23;20178;-79
2021/03/25 16:52:43;;;;;;;32.20;23.00;;;14.50;99.10;;;;;;6125765;23;20907;-79
2021/03/25 16:55:12;;;;;;;31.77;23.10;;;14.50;99.20;;;;;;6126293;23;20500;-79
2021/03/25 16:57:39;;;;;;;31.92;26.15;;;14.50;99.20;;;;;;6125639;23;20461;-79
2021/03/25 17:00:25;;;;;;;33.37;25.30;;;14.50;99.20;;;;;;6137743;23;20165;-80
2021/03/25 17:02:54;;;;;;;31.97;25.33;;;14.40;99.20;;;;;;6137717;23;20397;-80
2021/03/25 17:05:24;;;;;;;35.97;26.93;;;14.40;99.30;;;;;;6125922;23;20496;-79
2021/03/25 17:07:53;;;;;;;34.57;26.07;;;14.40;99.40;;;;;;6125964;23;20421;-79
2021/03/25 17:10:22;;;;;;;32.43;25.83;;;14.30;99.40;;;;;;6125707;23;20983;-79
2021/03/25 17:12:50;;;;;;;35.30;24.97;;;14.30;99.50;;;;;;6126274;23;20445;-79
2021/03/25 17:15:20;;;;;;;29.73;24.70;;;14.20;99.50;;;;;;6151828;23;20773;-79
2021/03/25 17:17:48;;;;;;;31.20;24.83;;;14.20;99.60;;;;;;6126226;23;20449;-79
2021/03/25 17:20:21;;;;;;;31.77;24.03;;;14.20;99.60;;;;;;6138180;23;20462;-79
2021/03/25 17:22:51;;;;;;;31.63;26.57;;;14.10;99.60;;;;;;6127391;23;20440;-79
2021/03/25 17:25:21;;;;;;;31.47;27.13;;;14.10;99.70;;;;;;6127842;23;20417;-78
2021/03/25 17:27:48;;;;;;;30.03;25.07;;;14.10;99.80;;;;;;6100604;23;20463;-78
2021/03/25 17:30:18;;;;;;;33.33;26.40;;;14.00;99.80;;;;;;6100647;23;20384;-78
2021/03/25 17:32:45;;;;;;;30.70;23.73;;;14.00;99.90;;;;;;6136227;23;20524;-78
2021/03/25 17:35:14;;;;;;;25.33;21.77;;;13.90;99.90;;;;;;6136352;23;20398;-78
2021/03/25 17:37:41;;;;;;;25.73;22.07;;;13.80;99.90;;;;;;6136513;23;20395;-78
2021/03/25 17:40:11;;;;;;;22.60;20.17;;;13.70;99.90;;;;;;6100479;23;20422;-77
2021/03/25 17:42:41;;;;;;;24.10;19.43;;;13.60;99.90;;;;;;6136775;23;20681;-77
2021/03/25 17:45:11;;;;;;;19.97;17.97;;;13.50;99.90;;;;;;6136664;23;20899;-78
2021/03/25 17:47:39;;;;;;;23.27;19.63;;;13.30;99.90;;;;;;6125001;23;20480;-78
2021/03/25 17:50:08;;;;;;;23.57;19.60;;;13.20;99.90;;;;;;6136153;23;20397;-79
2021/03/25 17:52:35;;;;;;;21.90;18.63;;;13.10;99.90;;;;;;6136188;23;20433;-78
2021/03/25 17:55:05;;;;;;;22.03;18.27;;;13.10;99.90;;;;;;6136135;23;20888;-78
2021/03/25 17:57:32;;;;;;;21.33;19.17;;;13.00;99.90;;;;;;6136330;23;20465;-78
2021/03/25 18:00:00;;;;;;;24.53;19.50;;;12.90;99.90;;;;;;6100471;23;20924;-78
2021/03/25 18:02:28;;;;;;;25.50;19.80;;;12.90;99.90;;;;;;6124853;23;20910;-79
2021/03/25 18:04:56;;;;;;;21.70;18.30;;;12.80;99.90;;;;;;6101404;23;20441;-79
2021/03/25 18:07:23;;;;;;;22.37;18.30;;;12.80;99.90;;;;;;6137046;23;20429;-79
2021/03/25 18:09:52;;;;;;;21.50;18.90;;;12.80;99.90;;;;;;6100758;23;20498;-79
2021/03/25 18:12:19;;;;;;;19.37;16.93;;;12.70;99.90;;;;;;6124869;23;20508;-79
2021/03/25 18:14:49;;;;;;;21.20;18.67;;;12.70;99.90;;;;;;6136478;23;20452;-79
2021/03/25 18:17:20;;;;;;;21.10;18.90;;;12.60;99.90;;;;;;6136292;23;20487;-78
2021/03/25 18:19:52;;;;;;;19.97;17.87;;;12.50;99.90;;;;;;6100781;23;20437;-78
2021/03/25 18:22:21;;;;;;;21.07;17.73;;;12.50;99.90;;;;;;6138034;23;20414;-78
2021/03/25 18:24:54;;;;;;;20.43;17.67;;;12.40;99.90;;;;;;6110520;23;20429;-78
2021/03/25 18:27:23;;;;;;;20.53;16.33;;;12.30;99.90;;;;;;6127018;23;20433;-78
2021/03/25 18:29:50;;;;;;;19.40;17.27;;;12.30;99.90;;;;;;6126923;23;20433;-78
2021/03/25 18:32:20;;;;;;;22.00;18.93;;;12.20;99.90;;;;;;6138038;23;20484;-78
2021/03/25 18:34:47;;;;;;;22.50;18.90;;;12.20;99.90;;;;;;6127276;23;20413;-78
2021/03/25 18:37:15;;;;;;;23.20;18.90;;;12.20;99.90;;;;;;6138688;23;20902;-78
2021/03/25 18:39:42;;;;;;;27.20;21.40;;;12.10;99.90;;;;;;6138281;23;20476;-78
2021/03/25 18:42:10;;;;;;;25.40;20.10;;;12.10;99.90;;;;;;6138287;23;20397;-78
2021/03/25 18:44:37;;;;;;;24.37;20.70;;;12.10;99.90;;;;;;6138130;23;20432;-78
2021/03/25 18:47:05;;;;;;;23.60;20.03;;;12.10;99.90;;;;;;6137876;23;20419;-78
2021/03/25 18:49:33;;;;;;;25.07;20.07;;;12.00;99.90;;;;;;6137817;23;20449;-78
2021/03/25 18:52:03;;;;;;;22.10;19.53;;;12.00;99.90;;;;;;6126380;23;20473;-78
2021/03/25 18:54:37;;;;;;;17.47;14.20;;;12.00;99.90;;;;;;6151394;23;20409;-78
2021/03/25 18:57:07;;;;;;;23.03;20.27;;;12.00;99.90;;;;;;6126746;23;20422;-77
2021/03/25 18:59:34;;;;;;;21.13;18.87;;;11.90;99.90;;;;;;6126956;23;20445;-78
2021/03/25 19:02:01;;;;;;;25.60;18.60;;;11.90;99.90;;;;;;6137868;23;20409;-77
2021/03/25 19:04:29;;;;;;;20.77;18.60;;;11.90;99.90;;;;;;6126779;23;20499;-77
2021/03/25 19:06:57;;;;;;;22.30;19.07;;;11.80;99.90;;;;;;6126662;23;20951;-77
2021/03/25 19:09:25;;;;;;;21.90;19.53;;;11.80;99.90;;;;;;6138152;23;20422;-77
2021/03/25 19:11:54;;;;;;;24.03;20.03;;;11.80;99.90;;;;;;6126534;23;20437;-77
2021/03/25 19:14:21;;;;;;;22.13;19.17;;;11.80;99.90;;;;;;6151935;23;20468;-77
2021/03/25 19:16:48;;;;;;;22.30;18.10;;;11.70;99.90;;;;;;6139035;23;20464;-77
2021/03/25 19:19:16;;;;;;;21.33;19.03;;;11.70;99.90;;;;;;6138523;23;20726;-77
2021/03/25 19:21:43;;;;;;;22.10;19.60;;;11.70;99.90;;;;;;6138514;23;20461;-77
2021/03/25 19:24:11;;;;;;;19.43;16.37;;;11.80;99.90;;;;;;6127935;23;20636;-77
2021/03/25 19:26:39;;;;;;;22.17;18.02;;;11.70;99.90;;;;;;6138266;23;20846;-77
2021/03/25 19:29:06;;;;;;;20.60;17.30;;;11.70;99.90;;;;;;6126575;23;20221;-78
2021/03/25 19:31:34;;;;;;;20.17;16.73;;;11.70;99.90;;;;;;6102189;23;20417;-77
2021/03/25 19:34:01;;;;;;;21.67;17.50;;;11.60;99.90;;;;;;6138070;23;20405;-77
2021/03/25 19:36:29;;;;;;;22.30;18.63;;;11.50;99.90;;;;;;6137257;23;20457;-77
2021/03/25 19:38:57;;;;;;;23.47;18.73;;;11.50;99.90;;;;;;6102206;23;20924;-77
2021/03/25 19:41:26;;;;;;;22.60;18.90;;;11.50;99.90;;;;;;6102193;23;20737;-77
2021/03/25 19:43:54;;;;;;;20.60;18.40;;;11.50;99.90;;;;;;6102732;23;20425;-77
2021/03/25 19:46:24;;;;;;;27.70;20.00;;;11.50;99.90;;;;;;6138284;23;20829;-77
2021/03/25 19:48:54;;;;;;;21.80;19.20;;;11.40;99.90;;;;;;6126559;23;20445;-77
2021/03/25 19:51:23;;;;;;;21.17;18.73;;;11.40;99.90;;;;;;6137813;23;20393;-77
2021/03/25 19:53:53;;;;;;;20.87;17.83;;;11.40;99.90;;;;;;6138039;23;20385;-77
2021/03/25 19:56:20;;;;;;;22.17;19.80;;;11.30;99.90;;;;;;6101818;23;20413;-77
2021/03/25 19:58:49;;;;;;;21.10;18.40;;;11.30;99.90;;;;;;6101787;23;20496;-77
2021/03/25 20:01:17;;;;;;;23.57;19.37;;;11.30;99.90;;;;;;6137797;23;20430;-77
2021/03/25 20:03:45;;;;;;;20.70;18.50;;;11.30;99.90;;;;;;6138191;23;20452;-77
2021/03/25 20:06:14;;;;;;;23.90;20.33;;;11.20;99.90;;;;;;6137777;23;20405;-77
2021/03/25 20:08:41;;;;;;;27.80;20.40;;;11.20;99.90;;;;;;6101660;23;20434;-77
2021/03/25 20:11:12;;;;;;;24.53;18.60;;;11.10;99.90;;;;;;6101624;23;20500;-77
2021/03/25 20:13:40;;;;;;;24.47;20.70;;;11.10;99.90;;;;;;6137990;23;20417;-77
2021/03/25 20:16:08;;;;;;;23.53;20.50;;;11.00;99.90;;;;;;6137506;23;20394;-77
2021/03/25 20:18:39;;;;;;;24.50;19.57;;;11.00;99.90;;;;;;6101482;23;20492;-77
2021/03/25 20:21:09;;;;;;;22.03;19.07;;;10.90;99.90;;;;;;6101719;23;20437;-77